Aviation Digital Data Service (ADDS)

Output produced by METARs form (0228 UTC 06 December 2020)
found at http://aviationweather.gov/metar/data/
 
METAR text: K04V 060215Z AUTO 31013KT 10SM CLR 02/M16 A3037 RMK AO2
Conditions at: K04V (SAGUACHE MUNI , CO, US) observed 0215 UTC 06 December 2020
Temperature: 2.0°C (36°F)
Dewpoint: -16.0°C ( 3°F) [RH = 25%]
Pressure (altimeter): 30.37 inches Hg (1028.5 mb)
Winds: from the NW (310 degrees) at 15 MPH (13 knots; 6.7 m/s)
Visibility: 10 or more miles (16+ km)
Ceiling: at least 12,000 feet AGL
Clouds: sky clear below 12,000 feet AGL
Weather: automated observation with no human augmentation;
there may or may not be significant weather present at this time

METAR text: K04V 060155Z AUTO 31014KT 10SM CLR 02/M16 A3036 RMK AO2
Conditions at: K04V (SAGUACHE MUNI , CO, US) observed 0155 UTC 06 December 2020
Temperature: 2.0°C (36°F)
Dewpoint: -16.0°C ( 3°F) [RH = 25%]
Pressure (altimeter): 30.36 inches Hg (1028.2 mb)
Winds: from the NW (310 degrees) at 16 MPH (14 knots; 7.2 m/s)
Visibility: 10 or more miles (16+ km)
Ceiling: at least 12,000 feet AGL
Clouds: sky clear below 12,000 feet AGL
Weather: automated observation with no human augmentation;
there may or may not be significant weather present at this time

METAR text: K04V 060135Z AUTO 31013KT 10SM CLR 02/M16 A3036 RMK AO2
Conditions at: K04V (SAGUACHE MUNI , CO, US) observed 0135 UTC 06 December 2020
Temperature: 2.0°C (36°F)
Dewpoint: -16.0°C ( 3°F) [RH = 25%]
Pressure (altimeter): 30.36 inches Hg (1028.2 mb)
Winds: from the NW (310 degrees) at 15 MPH (13 knots; 6.7 m/s)
Visibility: 10 or more miles (16+ km)
Ceiling: at least 12,000 feet AGL
Clouds: sky clear below 12,000 feet AGL
Weather: automated observation with no human augmentation;
there may or may not be significant weather present at this time